Time;durP1;ratioP1;P1;durP2;ratioP2;P2;SDS_P1;SDS_P2;PMS_P1;PMS_P2;Temp;Humidity;BMP_temperature;BMP_pressure;BME280_temperature;BME280_humidity;BME280_pressure;Samples;Min_cycle;Max_cycle;Signal;HPM_P1;HPM_P2
2022/01/02 00:01:41;;;;;;;24.7;27.6;;;;;;;10.4;82.5;99560;;;;
2022/01/02 00:12:41;;;;;;;24.7;27.6;;;;;;;10.4;82.3;99560;;;;
2022/01/02 00:22:47;;;;;;;24.7;27.6;;;;;;;10.3;82.5;99550;;;;
2022/01/02 00:32:41;;;;;;;24.5;31.5;;;;;;;10.4;82.5;99530;;;;
2022/01/02 00:43:41;;;;;;;24.5;31.5;;;;;;;10.4;82.5;99540;;;;
2022/01/02 00:53:41;;;;;;;20.2;28.2;;;;;;;10.4;82.6;99530;;;;
2022/01/02 01:04:41;;;;;;;20.2;28.2;;;;;;;10.5;82.6;99540;;;;
2022/01/02 01:14:41;;;;;;;20.2;28.2;;;;;;;10.3;83.2;99530;;;;
2022/01/02 01:24:41;;;;;;;19.1;22.5;;;;;;;10.3;83.1;99510;;;;
2022/01/02 01:35:42;;;;;;;19.1;22.5;;;;;;;10.3;82.8;99500;;;;
2022/01/02 01:45:42;;;;;;;19.1;22.5;;;;;;;10.3;82.9;99490;;;;
2022/01/02 01:56:41;;;;;;;18.3;21.9;;;;;;;10.2;83.3;99480;;;;
2022/01/02 02:06:41;;;;;;;18.3;21.9;;;;;;;10.1;83.8;99470;;;;
2022/01/02 02:17:41;;;;;;;18.3;21.9;;;;;;;10.2;83.5;99470;;;;
2022/01/02 02:28:41;;;;;;;16.7;20.4;;;;;;;10.3;83.4;99460;;;;
2022/01/02 02:38:41;;;;;;;16.7;20.4;;;;;;;10.5;82.8;99450;;;;
2022/01/02 02:49:41;;;;;;;16.7;20.4;;;;;;;10.4;82.2;99430;;;;
2022/01/02 03:00:41;;;;;;;15.3;18.8;;;;;;;10.3;82.4;99420;;;;
2022/01/02 03:11:41;;;;;;;15.3;18.8;;;;;;;10.4;82.4;99420;;;;
2022/01/02 03:21:41;;;;;;;15.3;18.8;;;;;;;10.4;82;99400;;;;
2022/01/02 03:32:41;;;;;;;12.9;15.8;;;;;;;10.2;82.1;99400;;;;
2022/01/02 03:42:41;;;;;;;12.9;15.8;;;;;;;10.2;82.1;99370;;;;
2022/01/02 03:53:41;;;;;;;10.3;14.4;;;;;;;10.2;82.3;99360;;;;
2022/01/02 04:03:41;;;;;;;10.3;14.4;;;;;;;10.3;82;99370;;;;
2022/01/02 04:13:41;;;;;;;10.3;14.4;;;;;;;10.3;81.8;99360;;;;
2022/01/02 04:24:41;;;;;;;10.3;13.3;;;;;;;10.4;81.5;99360;;;;
2022/01/02 04:35:41;;;;;;;10.3;13.3;;;;;;;10.3;81.2;99350;;;;
2022/01/02 04:45:41;;;;;;;10.3;13.3;;;;;;;10.3;80.9;99340;;;;
2022/01/02 04:55:41;;;;;;;8.9;12.6;;;;;;;10.1;81.7;99320;;;;
2022/01/02 05:06:41;;;;;;;8.9;12.6;;;;;;;9.9;82.1;99310;;;;
2022/01/02 05:16:41;;;;;;;8.9;12.6;;;;;;;10;81.6;99280;;;;
2022/01/02 05:27:41;;;;;;;9.9;14.5;;;;;;;9.9;81.3;99260;;;;
2022/01/02 05:38:41;;;;;;;9.9;14.5;;;;;;;10;80.9;99250;;;;
2022/01/02 05:48:41;;;;;;;9.9;14.5;;;;;;;9.9;81;99230;;;;
2022/01/02 05:59:41;;;;;;;5.8;9.7;;;;;;;9.9;80.8;99210;;;;
2022/01/02 06:09:41;;;;;;;5.8;9.7;;;;;;;9.6;80.8;99180;;;;
2022/01/02 06:19:41;;;;;;;5.8;9.7;;;;;;;9.3;80.9;99170;;;;
2022/01/02 06:29:41;;;;;;;6.2;9.8;;;;;;;9.1;81.2;99150;;;;
2022/01/02 06:39:41;;;;;;;6.2;9.8;;;;;;;9;81.2;99150;;;;
2022/01/02 06:49:41;;;;;;;6.2;9.8;;;;;;;8.9;81.3;99140;;;;
2022/01/02 06:59:41;;;;;;;4.3;7;;;;;;;9.1;79.5;99140;;;;
2022/01/02 07:09:41;;;;;;;4.3;7;;;;;;;9.2;78.5;99110;;;;
2022/01/02 07:20:41;;;;;;;4.3;7;;;;;;;9.1;78.7;99080;;;;
2022/01/02 07:30:41;;;;;;;4.4;8.2;;;;;;;9.1;79.1;99050;;;;
2022/01/02 07:40:41;;;;;;;4.4;8.2;;;;;;;9.2;79.1;99060;;;;
2022/01/02 07:51:41;;;;;;;4.4;8.2;;;;;;;9.2;78.9;99030;;;;
2022/01/02 08:01:42;;;;;;;4;6.4;;;;;;;9.3;78.7;99020;;;;
2022/01/02 08:11:41;;;;;;;4;6.4;;;;;;;9.4;78.6;99000;;;;
2022/01/02 08:21:41;;;;;;;4;6.4;;;;;;;9.8;78.1;98980;;;;
2022/01/02 08:31:41;;;;;;;4.2;8.1;;;;;;;10;77.3;98970;;;;
2022/01/02 08:42:41;;;;;;;4.2;8.1;;;;;;;9.9;77.3;98950;;;;
2022/01/02 08:52:41;;;;;;;4.3;6.2;;;;;;;10;76.4;98950;;;;
2022/01/02 09:02:41;;;;;;;4.3;6.2;;;;;;;10.2;75.3;98930;;;;
2022/01/02 09:13:41;;;;;;;4.3;6.2;;;;;;;10.5;74.8;98920;;;;
2022/01/02 09:23:41;;;;;;;3.4;6.3;;;;;;;11.1;72.4;98900;;;;
2022/01/02 09:34:41;;;;;;;3.4;6.3;;;;;;;11.5;70.2;98890;;;;
2022/01/02 09:44:41;;;;;;;3.4;6.3;;;;;;;11.8;68.9;98880;;;;
2022/01/02 09:55:41;;;;;;;3.3;6.9;;;;;;;12.1;67.9;98870;;;;
2022/01/02 10:06:41;;;;;;;3.3;6.9;;;;;;;12.5;66.2;98870;;;;
2022/01/02 10:16:41;;;;;;;3.3;6.9;;;;;;;12.9;66.2;98850;;;;
2022/01/02 10:26:41;;;;;;;3.9;7;;;;;;;13;65.8;98850;;;;
2022/01/02 10:37:41;;;;;;;3.9;7;;;;;;;13.3;65;98820;;;;
2022/01/02 10:48:41;;;;;;;3.9;7;;;;;;;13.3;66.1;98820;;;;
2022/01/02 10:58:41;;;;;;;5.6;8.5;;;;;;;13.5;65.3;98810;;;;
2022/01/02 11:09:41;;;;;;;5.6;8.5;;;;;;;13.7;64.4;98800;;;;
2022/01/02 11:19:41;;;;;;;5.6;8.5;;;;;;;13.4;63.7;98770;;;;
2022/01/02 11:30:41;;;;;;;4.7;8;;;;;;;13.3;64.7;98740;;;;
2022/01/02 11:40:41;;;;;;;4.7;8;;;;;;;13.2;65.2;98720;;;;
2022/01/02 11:50:41;;;;;;;4.7;8;;;;;;;13.1;66.4;98710;;;;
2022/01/02 12:01:41;;;;;;;5.7;8.8;;;;;;;13.2;67.6;98700;;;;
2022/01/02 12:11:41;;;;;;;5.7;8.8;;;;;;;13;68.1;98690;;;;
2022/01/02 12:21:41;;;;;;;5.7;8.8;;;;;;;12.8;68.7;98690;;;;
2022/01/02 12:32:41;;;;;;;11.1;15.4;;;;;;;13;68.1;98680;;;;
2022/01/02 12:42:41;;;;;;;11.1;15.4;;;;;;;13;68;98680;;;;
2022/01/02 12:53:41;;;;;;;16.7;20.3;;;;;;;13.1;67.7;98660;;;;
2022/01/02 13:03:43;;;;;;;16.7;20.3;;;;;;;13;67.7;98650;;;;
2022/01/02 13:14:41;;;;;;;16.7;20.3;;;;;;;13;68.2;98660;;;;
2022/01/02 13:24:41;;;;;;;14.6;18.4;;;;;;;12.8;67.7;98650;;;;
2022/01/02 13:35:41;;;;;;;14.6;18.4;;;;;;;12.5;68.7;98660;;;;
2022/01/02 13:45:43;;;;;;;14.6;18.4;;;;;;;12.3;69.5;98650;;;;
2022/01/02 13:56:41;;;;;;;16.7;22;;;;;;;12.1;70.2;98640;;;;
2022/01/02 14:07:41;;;;;;;16.7;22;;;;;;;11.8;71.5;98630;;;;
2022/01/02 14:17:41;;;;;;;16.7;22;;;;;;;11.6;71.6;98650;;;;
2022/01/02 14:28:41;;;;;;;18.9;31.3;;;;;;;11.3;72.7;98640;;;;
2022/01/02 14:39:41;;;;;;;18.9;31.3;;;;;;;11.1;73.6;98610;;;;
2022/01/02 14:49:41;;;;;;;18.9;31.3;;;;;;;10.8;74.6;98610;;;;
2022/01/02 14:59:43;;;;;;;20.7;27.8;;;;;;;10.7;74.9;98580;;;;
2022/01/02 15:10:41;;;;;;;20.7;27.8;;;;;;;10.6;75.1;98580;;;;
2022/01/02 15:21:41;;;;;;;20.7;27.8;;;;;;;10.5;73.9;98570;;;;
2022/01/02 15:32:41;;;;;;;18.3;24.7;;;;;;;10.5;73.1;98560;;;;
2022/01/02 15:42:41;;;;;;;18.3;24.7;;;;;;;10.3;72.7;98560;;;;
2022/01/02 15:53:41;;;;;;;14.6;17.2;;;;;;;10.2;72.1;98560;;;;
2022/01/02 16:03:42;;;;;;;14.6;17.2;;;;;;;10.2;71.3;98550;;;;
2022/01/02 16:14:41;;;;;;;14.6;17.2;;;;;;;10.2;70.8;98540;;;;
2022/01/02 16:25:41;;;;;;;12;16.5;;;;;;;10.1;70.9;98530;;;;
2022/01/02 16:35:41;;;;;;;12;16.5;;;;;;;9.8;71.2;98530;;;;
2022/01/02 16:45:41;;;;;;;12;16.5;;;;;;;9.6;72;98500;;;;
2022/01/02 16:55:41;;;;;;;26.6;35.1;;;;;;;9.6;72.4;98490;;;;
2022/01/02 17:06:43;;;;;;;26.6;35.1;;;;;;;9.5;72.8;98490;;;;
2022/01/02 17:16:42;;;;;;;26.6;35.1;;;;;;;9.4;73;98470;;;;
2022/01/02 17:26:41;;;;;;;26.3;33.2;;;;;;;9.5;72.2;98470;;;;
2022/01/02 17:36:41;;;;;;;26.3;33.2;;;;;;;9.7;71.2;98450;;;;
2022/01/02 17:47:41;;;;;;;26.3;33.2;;;;;;;9.7;71.2;98420;;;;
2022/01/02 17:58:41;;;;;;;11;15;;;;;;;9.6;71.5;98410;;;;
2022/01/02 18:08:41;;;;;;;11;15;;;;;;;9.5;71.5;98400;;;;
2022/01/02 18:18:41;;;;;;;11;15;;;;;;;9.4;73.2;98420;;;;
2022/01/02 18:28:41;;;;;;;24.5;28.6;;;;;;;9.3;73.6;98410;;;;
2022/01/02 18:38:41;;;;;;;24.5;28.6;;;;;;;9.3;73.9;98400;;;;
2022/01/02 18:49:41;;;;;;;24.5;28.6;;;;;;;9.3;74.1;98380;;;;
2022/01/02 18:59:41;;;;;;;30.3;36.6;;;;;;;9.1;74.9;98350;;;;
2022/01/02 19:10:41;;;;;;;30.3;36.6;;;;;;;9.3;74.2;98330;;;;
2022/01/02 19:20:41;;;;;;;30.3;36.6;;;;;;;9.4;74.1;98310;;;;
2022/01/02 19:30:41;;;;;;;32;40;;;;;;;9.3;74.3;98290;;;;
2022/01/02 19:40:41;;;;;;;32;40;;;;;;;9.6;72.1;98260;;;;
2022/01/02 19:51:41;;;;;;;32;40;;;;;;;10.2;68.6;98250;;;;
2022/01/02 20:01:41;;;;;;;18.9;23.8;;;;;;;10.6;66.8;98210;;;;
2022/01/02 20:11:41;;;;;;;18.9;23.8;;;;;;;10.8;66.3;98190;;;;
2022/01/02 20:22:41;;;;;;;5.7;9.6;;;;;;;10.9;66.1;98170;;;;
2022/01/02 20:33:41;;;;;;;5.7;9.6;;;;;;;11.1;65.5;98170;;;;
2022/01/02 20:43:41;;;;;;;5.7;9.6;;;;;;;10.9;65.6;98180;;;;
2022/01/02 20:53:41;;;;;;;5.7;10.5;;;;;;;10.6;66.1;98170;;;;
2022/01/02 21:03:43;;;;;;;5.7;10.5;;;;;;;10.5;66.3;98160;;;;
2022/01/02 21:13:42;;;;;;;5.7;10.5;;;;;;;10.6;65.5;98130;;;;
2022/01/02 21:24:41;;;;;;;4.7;10;;;;;;;10.5;65.7;98130;;;;
2022/01/02 21:35:41;;;;;;;4.7;10;;;;;;;10.5;65.2;98160;;;;
2022/01/02 21:45:42;;;;;;;4.7;10;;;;;;;9.7;68.3;98180;;;;
2022/01/02 21:55:43;;;;;;;20.1;24.3;;;;;;;9;70.3;98170;;;;
2022/01/02 22:05:42;;;;;;;20.1;24.3;;;;;;;8.2;72;98170;;;;
2022/01/02 22:15:42;;;;;;;20.1;24.3;;;;;;;8.1;72.7;98170;;;;
2022/01/02 22:26:42;;;;;;;26;30.9;;;;;;;8.1;72.2;98180;;;;
2022/01/02 22:36:42;;;;;;;26;30.9;;;;;;;8.6;70.1;98190;;;;
2022/01/02 22:47:42;;;;;;;26;30.9;;;;;;;8.8;69.7;98180;;;;
2022/01/02 22:58:42;;;;;;;19.2;25.3;;;;;;;8.6;69.9;98190;;;;
2022/01/02 23:09:42;;;;;;;19.2;25.3;;;;;;;8.5;70.1;98210;;;;
2022/01/02 23:20:42;;;;;;;19.2;25.3;;;;;;;8.9;68.3;98200;;;;
2022/01/02 23:30:42;;;;;;;14.6;21.5;;;;;;;9.2;67.4;98220;;;;
2022/01/02 23:41:42;;;;;;;14.6;21.5;;;;;;;9.6;66.5;98210;;;;
2022/01/02 23:52:42;;;;;;;4.9;7.7;;;;;;;9.9;66.1;98210;;;;
